^^
Saratoga-Weather Station Historical Data
Daily Summary for January 22, 2021 Units:  English    Metric   Both
Daily Weekly Monthly Yearly Custom
  High: Low: Average:
Temperature: 51.1 °F 35.4 °F 41.4 °F
Dew Point: 45.7 °F 33.8 °F 38.8 °F
Humidity: 95% 78% 91%
Wind Speed: 14.1mph 0mph 2.5mph
Wind Gust: 20mph - -
Wind- - SW
Pressure: 29.5 in 29.2 in -
Precipitation: 0.48 in    
Historical Graphs
 
 
Tabular Data for January 22, 2021
Time Temperature Dew Point Pressure Wind Wind Speed Wind Gust Humidity Rainfall Rate (Hourly) solar
00:04 51.1 °F 44.4 °F 29.2 in ENE 4 mph 6 mph 78% 0 in 0 W/m2
00:09 51.1 °F 44.4 °F 29.2 in NW 4 mph 7 mph 78% 0 in 0 W/m2
00:14 51.1 °F 44.4 °F 29.2 in WNW 6.9 mph 14 mph 78% 0 in 0 W/m2
00:19 50.9 °F 44.6 °F 29.2 in WNW 4 mph 14 mph 79% 0 in 0 W/m2
00:24 50.9 °F 44.2 °F 29.2 in North 6 mph 14 mph 78% 0 in 0 W/m2
00:29 50.9 °F 44.6 °F 29.2 in North 4 mph 10 mph 79% 0 in 0 W/m2
00:34 50.7 °F 44.8 °F 29.2 in North 0.9 mph 6 mph 80% 0 in 0 W/m2
00:39 50.4 °F 44.8 °F 29.2 in NNE 4.9 mph 16 mph 81% 0 in 0 W/m2
00:44 50.2 °F 44.6 °F 29.2 in West 10.1 mph 10 mph 81% 0 in 0 W/m2
00:49 50.2 °F 44.2 °F 29.2 in WNW 2.9 mph 8 mph 80% 0 in 0 W/m2
00:54 50.4 °F 44.1 °F 29.2 in East 2 mph 10 mph 79% 0 in 0 W/m2
00:59 50.5 °F 44.2 °F 29.2 in NE 10.1 mph 11 mph 79% 0 in 0 W/m2
01:04 50.7 °F 44.1 °F 29.2 in NW 2.9 mph 10 mph 78% 0 in 0 W/m2
01:09 50.7 °F 44.4 °F 29.2 in South 6.9 mph 7 mph 79% 0 in 0 W/m2
01:14 50.5 °F 44.6 °F 29.2 in SSE 2 mph 17 mph 80% 0.01 in 0 W/m2
01:19 50.2 °F 45 °F 29.2 in WNW 4.9 mph 10 mph 82% 0.01 in 0 W/m2
01:24 49.6 °F 44.8 °F 29.2 in WNW 2.9 mph 17 mph 83% 0.01 in 0 W/m2
01:29 49.5 °F 44.8 °F 29.2 in WSW 2 mph 9 mph 84% 0.01 in 0 W/m2
01:34 49.3 °F 45 °F 29.2 in Calm   7 mph 85% 0.01 in 0 W/m2
01:39 48.9 °F 45 °F 29.2 in NE 4.9 mph 10 mph 86% 0.01 in 0 W/m2
01:44 48.7 °F 45 °F 29.2 in WSW 6.9 mph 11 mph 87% 0.01 in 0 W/m2
01:49 48.6 °F 45.1 °F 29.2 in West 2.9 mph 12 mph 88% 0.01 in 0 W/m2
01:54 48.6 °F 45.1 °F 29.2 in NNW 4 mph 15 mph 88% 0.01 in 0 W/m2
01:59 48.4 °F 45.3 °F 29.2 in SSW 4 mph 11 mph 89% 0.01 in 0 W/m2
02:04 48.4 °F 45.3 °F 29.2 in NNE 2.9 mph 8 mph 89% 0.01 in 0 W/m2
02:09 48.4 °F 45.3 °F 29.2 in NE 6 mph 8 mph 89% 0.01 in 0 W/m2
02:14 48.4 °F 45.3 °F 29.2 in NW 8.1 mph 10 mph 89% 0 in 0 W/m2
02:19 48.4 °F 45.3 °F 29.2 in SE 2.9 mph 7 mph 89% 0 in 0 W/m2
02:24 48.4 °F 45.3 °F 29.2 in WNW 4 mph 11 mph 89% 0 in 0 W/m2
02:29 48.2 °F 45.3 °F 29.2 in NW 6 mph 12 mph 90% 0 in 0 W/m2
02:34 48 °F 45.1 °F 29.2 in NNW 8.1 mph 8 mph 90% 0.01 in 0 W/m2
02:39 48 °F 45.5 °F 29.2 in East 4 mph 8 mph 91% 0.01 in 0 W/m2
02:44 47.8 °F 45.3 °F 29.2 in NW 4 mph 9 mph 91% 0.01 in 0 W/m2
02:49 47.8 °F 45.3 °F 29.2 in NNW 2.9 mph 5 mph 91% 0.01 in 0 W/m2
02:54 47.8 °F 45.7 °F 29.2 in NW 2 mph 6 mph 92% 0.01 in 0 W/m2
02:59 47.7 °F 45.5 °F 29.2 in WNW 4 mph 7 mph 92% 0.01 in 0 W/m2
03:04 47.7 °F 45.5 °F 29.2 in ENE 10.1 mph 10 mph 92% 0.01 in 0 W/m2
03:09 47.8 °F 45.7 °F 29.2 in WNW 4 mph 12 mph 92% 0.02 in 0 W/m2
03:14 47.8 °F 45.7 °F 29.2 in ENE 4 mph 9 mph 92% 0.02 in 0 W/m2
03:19 47.8 °F 45.3 °F 29.2 in WNW 8.1 mph 10 mph 91% 0.02 in 0 W/m2
03:24 48 °F 45.5 °F 29.2 in NW 8.9 mph 13 mph 91% 0.02 in 0 W/m2
03:29 48.2 °F 45.3 °F 29.2 in West 6 mph 20 mph 90% 0.02 in 0 W/m2
03:34 48.4 °F 45.5 °F 29.2 in NW 8.1 mph 11 mph 90% 0.01 in 0 W/m2
03:39 48.4 °F 45.3 °F 29.2 in ENE 4 mph 20 mph 89% 0.01 in 0 W/m2
03:44 48.4 °F 45.3 °F 29.2 in WNW 4.9 mph 8 mph 89% 0.01 in 0 W/m2
03:49 48.6 °F 45.1 °F 29.2 in WNW 4.9 mph 9 mph 88% 0.01 in 0 W/m2
03:54 48.6 °F 45.1 °F 29.2 in NNW 6 mph 10 mph 88% 0.01 in 0 W/m2
03:59 48.7 °F 45 °F 29.2 in WSW 2.9 mph 11 mph 87% 0.01 in 0 W/m2
04:04 48.7 °F 45 °F 29.2 in WNW 2.9 mph 6 mph 87% 0.01 in 0 W/m2
04:09 48.7 °F 45 °F 29.2 in WNW 4.9 mph 11 mph 87% 0 in 0 W/m2
04:14 48.7 °F 45 °F 29.2 in SW 6 mph 16 mph 87% 0 in 0 W/m2
04:19 48.7 °F 45 °F 29.2 in NW 4.9 mph 13 mph 87% 0 in 0 W/m2
04:24 48.7 °F 45 °F 29.2 in NW 2.9 mph 16 mph 87% 0 in 0 W/m2
04:29 48.6 °F 45.1 °F 29.2 in WNW 2.9 mph 12 mph 88% 0 in 0 W/m2
04:34 48.6 °F 45.1 °F 29.2 in WNW 2.9 mph 11 mph 88% 0 in 0 W/m2
04:39 48.4 °F 45.3 °F 29.2 in ESE 2.9 mph 12 mph 89% 0 in 0 W/m2
04:44 48 °F 45 °F 29.2 in NW 0.9 mph 9 mph 89% 0.01 in 0 W/m2
04:49 48 °F 45.1 °F 29.2 in SSE 0.9 mph 9 mph 90% 0.01 in 0 W/m2
04:54 47.8 °F 45 °F 29.2 in NNE 2 mph 17 mph 90% 0.02 in 0 W/m2
04:59 47.8 °F 45.3 °F 29.2 in Calm   8 mph 91% 0.02 in 0 W/m2
05:04 47.7 °F 45.1 °F 29.2 in NNW 2 mph 17 mph 91% 0.02 in 0 W/m2
05:09 47.7 °F 45.5 °F 29.2 in NW 4.9 mph 10 mph 92% 0.02 in 0 W/m2
05:14 47.5 °F 45.3 °F 29.2 in North 4 mph 7 mph 92% 0.03 in 0 W/m2
05:19 47.5 °F 45.3 °F 29.2 in North 4.9 mph 5 mph 92% 0.03 in 0 W/m2
05:24 47.5 °F 45.3 °F 29.2 in West 6.9 mph 10 mph 92% 0.04 in 0 W/m2
05:29 47.3 °F 45.3 °F 29.2 in WNW 14.1 mph 14 mph 93% 0.06 in 0 W/m2
05:34 45.7 °F 43 °F 29.2 in WSW 6.9 mph 12 mph 90% 0.09 in 0 W/m2
05:39 44.1 °F 41.4 °F 29.3 in WNW 14 mph 14 mph 90% 0.13 in 0 W/m2
05:44 43.2 °F 40.6 °F 29.3 in WNW 4.9 mph 10 mph 91% 0.15 in 0 W/m2
05:49 42.6 °F 40.1 °F 29.3 in WSW 6.9 mph 11 mph 91% 0.17 in 0 W/m2
05:54 42.4 °F 40.3 °F 29.3 in West 11 mph 11 mph 92% 0.17 in 0 W/m2
05:59 42.3 °F 40.5 °F 29.2 in West 2.9 mph 11 mph 93% 0.17 in 0 W/m2
06:04 42.1 °F 40.3 °F 29.2 in West 4 mph 6 mph 93% 0.18 in 0 W/m2
06:09 42.1 °F 40.3 °F 29.2 in West 2 mph 11 mph 93% 0.18 in 0 W/m2
06:14 42.1 °F 40.3 °F 29.2 in WSW 6 mph 6 mph 93% 0.17 in 0 W/m2
06:19 41.9 °F 40.1 °F 29.2 in WSW 4 mph 6 mph 93% 0.18 in 0 W/m2
06:24 41.7 °F 39.9 °F 29.2 in West 4 mph 6 mph 93% 0.17 in 0 W/m2
06:29 41.7 °F 40.1 °F 29.2 in West 2.9 mph 5 mph 94% 0.15 in 0 W/m2
06:34 41.9 °F 40.3 °F 29.2 in WNW 0.9 mph 4 mph 94% 0.13 in 0 W/m2
06:39 41.9 °F 40.3 °F 29.2 in WNW 2 mph 4 mph 94% 0.09 in 0 W/m2
06:44 41.9 °F 40.3 °F 29.3 in WNW 2 mph 3 mph 94% 0.06 in 0 W/m2
06:49 41.9 °F 40.3 °F 29.3 in West 8.1 mph 8 mph 94% 0.05 in 0 W/m2
06:54 41.5 °F 39.7 °F 29.3 in WSW 2.9 mph 10 mph 93% 0.05 in 0 W/m2
07:00 41.4 °F 39.6 °F 29.3 in WNW 2 mph 6 mph 93% 0.03 in 0 W/m2
07:05 41.4 °F 39.6 °F 29.3 in WNW 2.9 mph 10 mph 93% 0.03 in 0 W/m2
07:10 41.4 °F 39.6 °F 29.3 in NW 0.9 mph 3 mph 93% 0.03 in 0 W/m2
07:15 41.4 °F 39.6 °F 29.3 in NW 0.9 mph 6 mph 93% 0.04 in 0 W/m2
07:20 41.2 °F 39.4 °F 29.3 in WNW 2.9 mph 6 mph 93% 0.04 in 0 W/m2
07:25 41 °F 39.2 °F 29.3 in West 2.9 mph 4 mph 93% 0.05 in 0 W/m2
07:30 40.8 °F 39 °F 29.3 in NW 2.9 mph 6 mph 93% 0.05 in 0 W/m2
07:35 40.6 °F 39 °F 29.3 in WSW 0.9 mph 4 mph 94% 0.05 in 0 W/m2
07:40 40.6 °F 38.8 °F 29.3 in West 2.9 mph 4 mph 93% 0.05 in 0 W/m2
07:45 40.5 °F 38.7 °F 29.3 in Calm   2 mph 93% 0.05 in 0 W/m2
07:50 40.5 °F 38.7 °F 29.3 in WSW 2.9 mph 9 mph 93% 0.06 in 0 W/m2
07:55 40.3 °F 38.1 °F 29.3 in NNW 2 mph 8 mph 92% 0.05 in 0 W/m2
08:00 39.9 °F 37.8 °F 29.3 in NNW 2.9 mph 5 mph 92% 0.06 in 0 W/m2
08:05 39.7 °F 37.6 °F 29.3 in WNW 2 mph 6 mph 92% 0.07 in 0 W/m2
08:10 39.6 °F 37.4 °F 29.3 in NW 0.9 mph 7 mph 92% 0.07 in 0 W/m2
08:15 39.4 °F 37.2 °F 29.3 in NW 2 mph 3 mph 92% 0.08 in 0 W/m2
08:20 39 °F 36.9 °F 29.3 in North 8.1 mph 8 mph 92% 0.08 in 0 W/m2
08:25 38.8 °F 36.7 °F 29.3 in NW 2 mph 4 mph 92% 0.08 in 0 W/m2
08:30 38.7 °F 36.5 °F 29.3 in West 2 mph 4 mph 92% 0.09 in 0 W/m2
08:35 38.1 °F 36 °F 29.3 in North 4.9 mph 5 mph 92% 0.09 in 0 W/m2
08:40 37.8 °F 35.6 °F 29.3 in NW 2 mph 2 mph 92% 0.09 in 0 W/m2
08:45 37.6 °F 35.4 °F 29.3 in NW 5 mph 5 mph 92% 0.1 in 0 W/m2
08:50 37.2 °F 35.4 °F 29.3 in Calm   2 mph 93% 0.1 in 5 W/m2
08:55 37 °F 35.2 °F 29.3 in West 2 mph 4 mph 93% 0.11 in 5 W/m2
09:00 36.9 °F 35.1 °F 29.3 in WNW 0.9 mph 3 mph 93% 0.1 in 7 W/m2
09:05 36.5 °F 34.7 °F 29.3 in WNW 0.9 mph 4 mph 93% 0.09 in 7 W/m2
09:10 36.3 °F 34.5 °F 29.3 in Calm     93% 0.09 in 9 W/m2
09:15 36.1 °F 34.3 °F 29.3 in NE 0.9 mph 2 mph 93% 0.09 in 9 W/m2
09:20 36.1 °F 34.3 °F 29.3 in Calm   2 mph 93% 0.08 in 12 W/m2
09:25 36 °F 34.3 °F 29.3 in NE 0.9 mph 1 mph 94% 0.08 in 25 W/m2
09:30 35.8 °F 34.2 °F 29.3 in ENE 0.9 mph 2 mph 94% 0.08 in 40 W/m2
09:35 35.8 °F 34.2 °F 29.3 in Calm   1 mph 94% 0.07 in 33 W/m2
09:40 35.6 °F 34 °F 29.3 in Calm   2 mph 94% 0.07 in 16 W/m2
09:45 35.4 °F 33.8 °F 29.3 in Calm     94% 0.06 in 14 W/m2
09:50 35.4 °F 33.8 °F 29.3 in Calm     94% 0.06 in 32 W/m2
09:55 35.4 °F 33.8 °F 29.3 in East 0.9 mph 2 mph 94% 0.06 in 60 W/m2
10:00 35.4 °F 33.8 °F 29.3 in Calm     94% 0.06 in 58 W/m2
10:05 35.6 °F 34 °F 29.3 in Calm     94% 0.05 in 44 W/m2
10:10 35.8 °F 34.5 °F 29.3 in Calm     95% 0.04 in 49 W/m2
10:15 35.8 °F 34.5 °F 29.4 in Calm     95% 0.03 in 42 W/m2
10:20 36 °F 34.7 °F 29.3 in Calm   1 mph 95% 0.03 in 44 W/m2
10:25 36 °F 34.7 °F 29.3 in Calm   1 mph 95% 0.02 in 40 W/m2
10:30 36.1 °F 34.9 °F 29.4 in East 0.9 mph 1 mph 95% 0.02 in 39 W/m2
10:35 36.1 °F 34.9 °F 29.4 in Calm   1 mph 95% 0.02 in 40 W/m2
10:40 36.3 °F 35.1 °F 29.4 in Calm   1 mph 95% 0.02 in 39 W/m2
10:45 36.3 °F 35.1 °F 29.4 in Calm   3 mph 95% 0.02 in 51 W/m2
10:50 36.5 °F 35.2 °F 29.4 in NW 2 mph 2 mph 95% 0.02 in 54 W/m2
10:55 36.7 °F 35.4 °F 29.4 in WNW 0.9 mph 3 mph 95% 0.01 in 56 W/m2
11:00 36.7 °F 35.4 °F 29.4 in Calm     95% 0.01 in 62 W/m2
11:05 36.9 °F 35.6 °F 29.4 in Calm     95% 0.01 in 63 W/m2
11:10 36.9 °F 35.6 °F 29.4 in NE 0.9 mph 2 mph 95% 0.01 in 60 W/m2
11:15 36.9 °F 35.6 °F 29.4 in Calm   1 mph 95% 0.02 in 56 W/m2
11:20 37 °F 35.8 °F 29.4 in NE 0.9 mph 1 mph 95% 0.02 in 70 W/m2
11:25 37 °F 35.8 °F 29.4 in Calm     95% 0.02 in 91 W/m2
11:30 37 °F 35.8 °F 29.4 in NE 0.9 mph 1 mph 95% 0.01 in 86 W/m2
11:35 37.2 °F 36 °F 29.4 in Calm   1 mph 95% 0.01 in 83 W/m2
11:40 37.4 °F 36.1 °F 29.4 in ENE 0.9 mph 2 mph 95% 0.01 in 74 W/m2
11:45 37.4 °F 36.1 °F 29.4 in ENE 0.9 mph 2 mph 95% 0.01 in 76 W/m2
11:50 37.4 °F 36.1 °F 29.4 in East 2 mph 3 mph 95% 0.01 in 91 W/m2
11:55 37.6 °F 36.3 °F 29.4 in East 0.9 mph 4 mph 95% 0.01 in 98 W/m2
12:01 37.8 °F 36.5 °F 29.4 in ESE 2 mph 3 mph 95% 0.01 in 100 W/m2
12:06 37.8 °F 36.5 °F 29.4 in ESE 0.9 mph 3 mph 95% 0.01 in 116 W/m2
12:11 37.8 °F 36.5 °F 29.4 in East 0.9 mph 2 mph 95% 0.01 in 111 W/m2
12:16 37.9 °F 36.7 °F 29.4 in Calm   3 mph 95% 0 in 113 W/m2
12:21 37.9 °F 36.7 °F 29.4 in East 2 mph 2 mph 95% 0 in 121 W/m2
12:26 38.1 °F 36.9 °F 29.4 in East 2 mph 3 mph 95% 0 in 134 W/m2
12:31 38.1 °F 36.9 °F 29.4 in Calm   2 mph 95% 0 in 123 W/m2
12:36 38.1 °F 36.9 °F 29.4 in East 0.9 mph 3 mph 95% 0 in 121 W/m2
12:41 38.3 °F 37 °F 29.4 in East 0.9 mph 2 mph 95% 0 in 146 W/m2
12:46 38.5 °F 37.2 °F 29.4 in East 2 mph 2 mph 95% 0 in 155 W/m2
12:51 38.5 °F 36.9 °F 29.4 in ENE 0.9 mph 2 mph 94% 0 in 156 W/m2
12:56 38.7 °F 37 °F 29.4 in Calm   2 mph 94% 0 in 181 W/m2
13:01 39 °F 37.4 °F 29.4 in Calm   1 mph 94% 0 in 186 W/m2
13:06 39.2 °F 37.6 °F 29.4 in NNE 0.9 mph 2 mph 94% 0 in 141 W/m2
13:11 39.4 °F 37.6 °F 29.4 in Calm   1 mph 93% 0 in 167 W/m2
13:16 39.4 °F 37.6 °F 29.4 in NNE 2 mph 2 mph 93% 0 in 128 W/m2
13:21 39.6 °F 37.8 °F 29.4 in Calm   3 mph 93% 0 in 148 W/m2
13:26 39.7 °F 37.9 °F 29.4 in Calm   1 mph 93% 0 in 148 W/m2
13:31 39.9 °F 38.1 °F 29.4 in Calm   3 mph 93% 0 in 120 W/m2
13:36 39.9 °F 37.8 °F 29.4 in North 0.9 mph 1 mph 92% 0 in 167 W/m2
13:41 40.1 °F 37.9 °F 29.4 in Calm   2 mph 92% 0 in 148 W/m2
13:46 40.3 °F 38.1 °F 29.4 in Calm   1 mph 92% 0 in 144 W/m2
13:51 40.5 °F 38.3 °F 29.4 in Calm   2 mph 92% 0 in 132 W/m2
13:56 40.5 °F 38.3 °F 29.4 in ENE 0.9 mph 2 mph 92% 0 in 123 W/m2
14:01 40.6 °F 38.3 °F 29.4 in Calm   1 mph 91% 0 in 109 W/m2
14:06 40.6 °F 38.3 °F 29.4 in Calm   2 mph 91% 0 in 98 W/m2
14:11 40.6 °F 38.3 °F 29.4 in East 2 mph 3 mph 91% 0 in 93 W/m2
14:16 40.6 °F 37.9 °F 29.4 in Calm   1 mph 90% 0 in 90 W/m2
14:21 40.6 °F 38.3 °F 29.4 in ENE 2 mph 3 mph 91% 0 in 86 W/m2
14:26 40.6 °F 37.9 °F 29.4 in ENE 0.9 mph 2 mph 90% 0 in 105 W/m2
14:31 40.5 °F 37.8 °F 29.4 in NE 2 mph 3 mph 90% 0 in 142 W/m2
14:36 40.5 °F 37.8 °F 29.4 in Calm   1 mph 90% 0 in 97 W/m2
14:41 40.5 °F 37.8 °F 29.4 in Calm   1 mph 90% 0 in 84 W/m2
14:46 40.5 °F 37.8 °F 29.4 in ENE 0.9 mph 1 mph 90% 0 in 79 W/m2
14:51 40.5 °F 37.8 °F 29.4 in Calm     90% 0 in 84 W/m2
14:56 40.6 °F 37.6 °F 29.4 in ENE 2 mph 2 mph 89% 0 in 90 W/m2
15:01 40.6 °F 37.6 °F 29.4 in ENE 0.9 mph 2 mph 89% 0 in 91 W/m2
15:06 40.6 °F 37.6 °F 29.4 in ENE 2 mph 2 mph 89% 0 in 79 W/m2
15:11 40.6 °F 37.6 °F 29.4 in Calm     89% 0 in 79 W/m2
15:16 40.6 °F 37.6 °F 29.4 in NE 2 mph 2 mph 89% 0 in 65 W/m2
15:21 40.6 °F 37.6 °F 29.4 in ENE 0.9 mph 2 mph 89% 0 in 60 W/m2
15:26 40.6 °F 37.9 °F 29.4 in ENE 0.9 mph 2 mph 90% 0 in 63 W/m2
15:31 40.6 °F 37.6 °F 29.4 in Calm   1 mph 89% 0 in 56 W/m2
15:36 40.6 °F 37.6 °F 29.4 in Calm     89% 0 in 46 W/m2
15:41 40.6 °F 37.9 °F 29.4 in Calm     90% 0 in 35 W/m2
15:46 40.6 °F 37.6 °F 29.4 in NNE 2 mph 3 mph 89% 0 in 32 W/m2
15:51 40.6 °F 37.6 °F 29.4 in Calm   2 mph 89% 0 in 30 W/m2
15:56 40.6 °F 37.6 °F 29.4 in Calm     89% 0 in 30 W/m2
16:01 40.6 °F 37.6 °F 29.4 in Calm     89% 0 in 37 W/m2
16:06 40.6 °F 37.9 °F 29.4 in Calm   1 mph 90% 0 in 46 W/m2
16:12 40.6 °F 38.3 °F 29.4 in Calm     91% 0 in 28 W/m2
16:17 40.6 °F 38.3 °F 29.4 in Calm   1 mph 91% 0 in 21 W/m2
16:22 40.6 °F 38.3 °F 29.4 in Calm   1 mph 91% 0 in 18 W/m2
16:27 40.6 °F 38.3 °F 29.4 in Calm     91% 0 in 16 W/m2
16:32 40.5 °F 38.1 °F 29.4 in Calm   1 mph 91% 0 in 18 W/m2
16:37 40.5 °F 38.1 °F 29.4 in Calm     91% 0 in 16 W/m2
16:42 40.5 °F 38.1 °F 29.4 in Calm     91% 0 in 12 W/m2
16:47 40.5 °F 38.3 °F 29.4 in Calm     92% 0 in 9 W/m2
16:52 40.5 °F 38.3 °F 29.4 in NE 0.9 mph 1 mph 92% 0 in 7 W/m2
16:57 40.5 °F 38.3 °F 29.4 in Calm     92% 0 in 5 W/m2
17:02 40.5 °F 38.3 °F 29.4 in Calm     92% 0 in 0 W/m2
17:07 40.5 °F 38.3 °F 29.4 in Calm     92% 0 in 0 W/m2
17:12 40.3 °F 38.1 °F 29.4 in Calm     92% 0 in 0 W/m2
17:17 40.3 °F 38.1 °F 29.4 in Calm     92% 0 in 0 W/m2
17:22 40.3 °F 38.1 °F 29.4 in Calm   2 mph 92% 0 in 0 W/m2
17:27 40.3 °F 38.1 °F 29.4 in Calm     92% 0 in 0 W/m2
17:32 40.3 °F 38.1 °F 29.4 in Calm     92% 0 in 0 W/m2
17:37 40.1 °F 37.9 °F 29.4 in North 0.9 mph 1 mph 92% 0 in 0 W/m2
17:42 39.9 °F 38.1 °F 29.4 in WNW 0.9 mph 2 mph 93% 0 in 0 W/m2
17:47 39.9 °F 38.1 °F 29.4 in WSW 2.9 mph 4 mph 93% 0 in 0 W/m2
17:52 39.9 °F 38.1 °F 29.4 in West 2 mph 4 mph 93% 0 in 0 W/m2
17:57 39.7 °F 37.9 °F 29.4 in West 2 mph 3 mph 93% 0 in 0 W/m2
18:02 39.7 °F 37.6 °F 29.4 in West 2 mph 4 mph 92% 0 in 0 W/m2
18:07 39.7 °F 37.6 °F 29.4 in West 2 mph 3 mph 92% 0 in 0 W/m2
18:12 39.7 °F 37.6 °F 29.4 in West 0.9 mph 3 mph 92% 0 in 0 W/m2
18:17 39.7 °F 37.6 °F 29.4 in West 2 mph 3 mph 92% 0 in 0 W/m2
18:22 39.6 °F 37.4 °F 29.4 in WNW 2 mph 3 mph 92% 0 in 0 W/m2
18:27 39.6 °F 37.4 °F 29.4 in West 2 mph 4 mph 92% 0 in 0 W/m2
18:32 39.6 °F 37.4 °F 29.4 in West 2 mph 6 mph 92% 0 in 0 W/m2
18:37 39.6 °F 37.2 °F 29.4 in WNW 4 mph 5 mph 91% 0 in 0 W/m2
18:42 39.6 °F 37.2 °F 29.4 in West 2 mph 3 mph 91% 0 in 0 W/m2
18:47 39.6 °F 37.2 °F 29.4 in West 4 mph 6 mph 91% 0 in 0 W/m2
18:52 39.6 °F 37.2 °F 29.4 in WNW 2.9 mph 7 mph 91% 0 in 0 W/m2
18:57 39.6 °F 36.9 °F 29.4 in WNW 2.9 mph 4 mph 90% 0 in 0 W/m2
19:02 39.6 °F 36.9 °F 29.4 in West 6.9 mph 7 mph 90% 0 in 0 W/m2
19:07 39.6 °F 36.9 °F 29.4 in West 4 mph 6 mph 90% 0 in 0 W/m2
19:12 39.6 °F 36.9 °F 29.4 in West 2.9 mph 4 mph 90% 0 in 0 W/m2
19:17 39.6 °F 36.9 °F 29.4 in West 0.9 mph 7 mph 90% 0 in 0 W/m2
19:22 39.6 °F 36.9 °F 29.4 in WSW 6.9 mph 7 mph 90% 0 in 0 W/m2
19:27 39.4 °F 36.5 °F 29.4 in WSW 2.9 mph 3 mph 89% 0 in 0 W/m2
19:32 39.4 °F 36.7 °F 29.4 in WSW 7 mph 7 mph 90% 0 in 0 W/m2
19:37 39.4 °F 36.7 °F 29.4 in WNW 0.9 mph 4 mph 90% 0 in 0 W/m2
19:42 39.2 °F 36.3 °F 29.4 in West 2.9 mph 4 mph 89% 0 in 0 W/m2
19:47 39.2 °F 36.3 °F 29.4 in West 2 mph 6 mph 89% 0 in 0 W/m2
19:52 39.2 °F 36.3 °F 29.4 in West 4 mph 6 mph 89% 0 in 0 W/m2
19:57 39.4 °F 36.5 °F 29.4 in West 4 mph 7 mph 89% 0 in 0 W/m2
20:02 39.4 °F 36.1 °F 29.4 in West 4 mph 8 mph 88% 0 in 0 W/m2
20:07 39.4 °F 36.1 °F 29.4 in West 2.9 mph 7 mph 88% 0 in 0 W/m2
20:12 39.4 °F 36.1 °F 29.4 in WNW 0.9 mph 8 mph 88% 0 in 0 W/m2
20:17 39.4 °F 36.1 °F 29.4 in West 6 mph 7 mph 88% 0 in 0 W/m2
20:22 39.2 °F 36 °F 29.4 in West 2.9 mph 4 mph 88% 0 in 0 W/m2
20:27 39 °F 35.8 °F 29.5 in WNW 2.9 mph 7 mph 88% 0 in 0 W/m2
20:32 39 °F 36.1 °F 29.5 in WSW 4 mph 7 mph 89% 0 in 0 W/m2
20:37 39 °F 36.1 °F 29.5 in West 2.9 mph 7 mph 89% 0 in 0 W/m2
20:42 39 °F 36.1 °F 29.5 in NW 2.9 mph 6 mph 89% 0 in 0 W/m2
20:47 39 °F 36.1 °F 29.5 in West 2.9 mph 6 mph 89% 0 in 0 W/m2
20:52 38.8 °F 36 °F 29.5 in West 6.9 mph 7 mph 89% 0 in 0 W/m2
20:57 38.8 °F 36 °F 29.5 in West 4 mph 6 mph 89% 0 in 0 W/m2
21:02 38.8 °F 36 °F 29.5 in WNW 4 mph 7 mph 89% 0 in 0 W/m2
21:07 38.8 °F 36 °F 29.5 in West 2 mph 4 mph 89% 0 in 0 W/m2
21:12 38.8 °F 36 °F 29.5 in WSW 4 mph 8 mph 89% 0 in 0 W/m2
21:17 38.8 °F 36 °F 29.5 in WNW 2.9 mph 8 mph 89% 0 in 0 W/m2
21:22 38.8 °F 36 °F 29.5 in West 2 mph 6 mph 89% 0 in 0 W/m2
21:27 38.8 °F 36 °F 29.5 in West 2 mph 4 mph 89% 0 in 0 W/m2
21:32 38.7 °F 35.8 °F 29.5 in WNW 2.9 mph 5 mph 89% 0 in 0 W/m2
21:37 38.7 °F 35.8 °F 29.5 in WNW 2 mph 6 mph 89% 0 in 0 W/m2
21:42 38.7 °F 35.8 °F 29.5 in WNW 2 mph 7 mph 89% 0 in 0 W/m2
21:47 38.7 °F 35.8 °F 29.5 in West 4 mph 4 mph 89% 0 in 0 W/m2
21:52 38.7 °F 35.8 °F 29.5 in WSW 2 mph 4 mph 89% 0 in 0 W/m2
21:57 38.7 °F 36 °F 29.5 in WNW 4 mph 6 mph 90% 0 in 0 W/m2
22:02 38.5 °F 35.8 °F 29.5 in WNW 2.9 mph 6 mph 90% 0 in 0 W/m2
22:07 38.5 °F 35.8 °F 29.5 in NW 6 mph 9 mph 90% 0 in 0 W/m2
22:13 38.5 °F 35.6 °F 29.5 in WNW 2.9 mph 8 mph 89% 0 in 0 W/m2
22:18 38.5 °F 35.6 °F 29.5 in West 2 mph 7 mph 89% 0 in 0 W/m2
22:23 38.5 °F 35.6 °F 29.5 in WNW 2 mph 7 mph 89% 0 in 0 W/m2
22:28 38.5 °F 35.6 °F 29.5 in West 2 mph 7 mph 89% 0 in 0 W/m2
22:33 38.5 °F 35.6 °F 29.5 in WNW 2 mph 4 mph 89% 0 in 0 W/m2
22:38 38.5 °F 35.6 °F 29.5 in WNW 2 mph 6 mph 89% 0 in 0 W/m2
22:43 38.5 °F 35.6 °F 29.5 in WNW 0.9 mph 4 mph 89% 0 in 0 W/m2
22:48 38.5 °F 35.6 °F 29.5 in NW 4.9 mph 7 mph 89% 0 in 0 W/m2
22:53 38.5 °F 35.6 °F 29.5 in WNW 6.9 mph 7 mph 89% 0 in 0 W/m2
22:58 38.5 °F 35.6 °F 29.5 in WNW 2.9 mph 8 mph 89% 0 in 0 W/m2
23:03 38.5 °F 35.6 °F 29.5 in West 2.9 mph 7 mph 89% 0 in 0 W/m2
23:08 38.5 °F 35.8 °F 29.5 in West 2.9 mph 5 mph 90% 0 in 0 W/m2
23:13 38.3 °F 35.6 °F 29.5 in WNW 2.9 mph 3 mph 90% 0 in 0 W/m2
23:18 38.3 °F 35.6 °F 29.5 in West 2 mph 3 mph 90% 0 in 0 W/m2
23:23 38.1 °F 35.4 °F 29.5 in West 2.9 mph 6 mph 90% 0 in 0 W/m2
23:28 38.1 °F 35.4 °F 29.5 in West 4 mph 8 mph 90% 0 in 0 W/m2
23:33 38.1 °F 35.4 °F 29.5 in WSW 0.9 mph 7 mph 90% 0 in 0 W/m2
23:38 38.1 °F 35.4 °F 29.5 in West 4 mph 8 mph 90% 0 in 0 W/m2
23:43 38.1 °F 35.4 °F 29.5 in West 2 mph 7 mph 90% 0 in 0 W/m2
23:48 38.1 °F 35.4 °F 29.5 in West 4 mph 7 mph 90% 0 in 0 W/m2
23:53 38.1 °F 35.2 °F 29.5 in SW 2 mph 8 mph 89% 0 in 0 W/m2
23:58 38.1 °F 35.2 °F 29.5 in West 2.9 mph 7 mph 89% 0 in 0 W/m2
Juneau County Weather
Compliments of Weather Underground - 4 mb